Time;durP1;ratioP1;P1;durP2;ratioP2;P2;SDS_P1;SDS_P2;PMS_P1;PMS_P2;Temp;Humidity;BMP_temperature;BMP_pressure;BME280_temperature;BME280_humidity;BME280_pressure;Samples;Min_cycle;Max_cycle;Signal;HPM_P1;HPM_P2
2021/07/17 00:01:59;;;;;;;44.20;17.35;;;;;;;;;;5094085;28;20044;-64
2021/07/17 00:04:45;;;;;;;47.20;16.42;;;;;;;;;;5095091;28;20058;-64
2021/07/17 00:07:30;;;;;;;44.35;16.65;;;;;;;;;;5094511;28;20509;-65
2021/07/17 00:10:18;;;;;;;41.35;17.48;;;;;;;;;;5093522;28;20040;-65
2021/07/17 00:13:04;;;;;;;45.63;16.05;;;;;;;;;;5094468;28;20486;-64
2021/07/17 00:15:51;;;;;;;60.85;19.73;;;;;;;;;;5094321;28;20174;-64
2021/07/17 00:18:36;;;;;;;55.28;18.80;;;;;;;;;;5094387;28;20058;-64
2021/07/17 00:21:22;;;;;;;53.00;17.70;;;;;;;;;;5093977;28;20050;-64
2021/07/17 00:24:07;;;;;;;39.63;15.70;;;;;;;;;;5094444;28;20055;-64
2021/07/17 00:26:52;;;;;;;44.38;18.92;;;;;;;;;;5094276;28;20726;-64
2021/07/17 00:29:40;;;;;;;49.08;17.08;;;;;;;;;;5094163;28;20054;-64
2021/07/17 00:32:25;;;;;;;50.85;17.95;;;;;;;;;;5092570;28;20051;-64
2021/07/17 00:35:10;;;;;;;59.53;19.08;;;;;;;;;;5074374;28;20505;-64
2021/07/17 00:37:56;;;;;;;43.70;17.85;;;;;;;;;;5079298;28;20055;-64
2021/07/17 00:40:41;;;;;;;51.50;18.45;;;;;;;;;;5093568;28;20505;-64
2021/07/17 00:43:26;;;;;;;45.60;19.15;;;;;;;;;;5092743;28;20048;-64
2021/07/17 00:46:11;;;;;;;53.35;17.98;;;;;;;;;;5081448;28;20047;-64
2021/07/17 00:48:57;;;;;;;55.88;19.42;;;;;;;;;;5094168;28;20101;-64
2021/07/17 00:51:42;;;;;;;55.17;18.75;;;;;;;;;;5093352;28;20044;-65
2021/07/17 00:54:28;;;;;;;46.33;18.42;;;;;;;;;;5089212;28;20415;-64
2021/07/17 00:57:13;;;;;;;48.65;20.08;;;;;;;;;;5094130;28;20044;-64
2021/07/17 00:59:59;;;;;;;50.60;18.90;;;;;;;;;;5093236;28;20182;-64
2021/07/17 01:02:45;;;;;;;41.42;19.92;;;;;;;;;;5087343;28;20044;-64
2021/07/17 01:05:30;;;;;;;47.83;18.88;;;;;;;;;;5076548;28;21592;-64
2021/07/17 01:08:16;;;;;;;40.55;17.50;;;;;;;;;;5093847;28;20052;-65
2021/07/17 01:11:01;;;;;;;52.60;19.38;;;;;;;;;;5093237;28;20074;-64
2021/07/17 01:13:49;;;;;;;48.05;18.90;;;;;;;;;;5091676;28;20044;-64
2021/07/17 01:16:35;;;;;;;47.13;17.55;;;;;;;;;;5076303;28;20159;-64
2021/07/17 01:19:24;;;;;;;49.95;18.58;;;;;;;;;;5090339;28;20097;-64
2021/07/17 01:22:10;;;;;;;42.90;19.58;;;;;;;;;;5077476;28;20089;-64
2021/07/17 01:24:56;;;;;;;45.00;16.75;;;;;;;;;;5092185;28;20047;-64
2021/07/17 01:27:44;;;;;;;53.47;18.38;;;;;;;;;;5050937;28;20055;-64
2021/07/17 01:30:32;;;;;;;38.60;18.25;;;;;;;;;;5077512;28;20052;-64
2021/07/17 01:33:20;;;;;;;46.58;17.73;;;;;;;;;;5091333;28;20040;-64
2021/07/17 01:36:05;;;;;;;51.75;18.88;;;;;;;;;;5077645;28;20531;-64
2021/07/17 01:38:52;;;;;;;46.80;18.33;;;;;;;;;;5053184;28;20063;-64
2021/07/17 01:41:37;;;;;;;43.85;18.08;;;;;;;;;;5092103;28;20504;-65
2021/07/17 01:44:22;;;;;;;46.33;17.38;;;;;;;;;;5092850;28;20040;-64
2021/07/17 01:47:08;;;;;;;45.03;18.35;;;;;;;;;;5092342;28;20563;-64
2021/07/17 01:49:53;;;;;;;49.83;18.70;;;;;;;;;;5092546;28;20135;-64
2021/07/17 01:52:38;;;;;;;51.88;18.50;;;;;;;;;;5092896;28;20127;-64
2021/07/17 01:55:24;;;;;;;48.97;18.33;;;;;;;;;;5092091;28;20463;-64
2021/07/17 01:58:09;;;;;;;51.78;18.58;;;;;;;;;;5092466;28;20052;-64
2021/07/17 02:00:54;;;;;;;54.65;19.52;;;;;;;;;;5088012;28;20563;-64
2021/07/17 02:03:44;;;;;;;49.22;19.08;;;;;;;;;;5074061;28;20097;-64
2021/07/17 02:06:29;;;;;;;39.50;17.38;;;;;;;;;;5072457;28;20543;-64
2021/07/17 02:09:15;;;;;;;50.95;18.90;;;;;;;;;;5088259;28;20048;-64
2021/07/17 02:12:00;;;;;;;46.42;17.25;;;;;;;;;;5092351;28;20047;-64
2021/07/17 02:14:49;;;;;;;43.20;19.67;;;;;;;;;;5091565;28;20048;-64
2021/07/17 02:17:34;;;;;;;56.50;19.98;;;;;;;;;;5092368;28;20094;-64
2021/07/17 02:20:19;;;;;;;51.97;19.08;;;;;;;;;;5092202;28;20208;-64
2021/07/17 02:23:05;;;;;;;50.83;18.80;;;;;;;;;;5092197;28;20517;-64
2021/07/17 02:25:50;;;;;;;53.08;21.00;;;;;;;;;;5092058;28;20054;-64
2021/07/17 02:28:36;;;;;;;50.47;19.92;;;;;;;;;;5092083;28;20051;-64
2021/07/17 02:31:22;;;;;;;60.70;19.58;;;;;;;;;;5091829;28;20512;-64
2021/07/17 02:34:07;;;;;;;53.60;18.55;;;;;;;;;;5092197;28;20047;-64
2021/07/17 02:36:52;;;;;;;52.20;19.58;;;;;;;;;;5090878;28;20059;-64
2021/07/17 02:39:37;;;;;;;55.80;19.55;;;;;;;;;;5091683;28;20086;-64
2021/07/17 02:42:23;;;;;;;64.15;19.77;;;;;;;;;;5091942;28;20502;-64
2021/07/17 02:45:08;;;;;;;48.00;20.13;;;;;;;;;;5090937;28;20590;-64
2021/07/17 02:47:54;;;;;;;49.92;18.35;;;;;;;;;;5091775;28;20101;-64
2021/07/17 02:50:39;;;;;;;52.00;18.67;;;;;;;;;;5090444;28;20051;-64
2021/07/17 02:53:24;;;;;;;56.08;19.88;;;;;;;;;;5092073;28;20131;-64
2021/07/17 02:56:10;;;;;;;58.83;19.77;;;;;;;;;;5091374;28;20048;-64
2021/07/17 02:58:55;;;;;;;46.05;17.63;;;;;;;;;;5091466;28;20101;-64
2021/07/17 03:01:41;;;;;;;49.97;18.98;;;;;;;;;;5091747;28;20055;-65
2021/07/17 03:04:26;;;;;;;59.92;21.13;;;;;;;;;;5091379;28;20134;-64
2021/07/17 03:07:12;;;;;;;55.72;18.17;;;;;;;;;;5091566;28;20055;-64
2021/07/17 03:09:57;;;;;;;51.42;18.13;;;;;;;;;;5091515;28;20045;-64
2021/07/17 03:12:43;;;;;;;48.03;18.33;;;;;;;;;;5091981;28;20047;-64
2021/07/17 03:15:28;;;;;;;47.28;17.33;;;;;;;;;;5091573;28;20048;-64
2021/07/17 03:18:16;;;;;;;49.60;17.30;;;;;;;;;;5091262;28;20059;-64
2021/07/17 03:21:02;;;;;;;44.55;16.80;;;;;;;;;;5071345;28;20059;-64
2021/07/17 03:23:47;;;;;;;39.78;16.63;;;;;;;;;;5090528;28;20139;-64
2021/07/17 03:26:32;;;;;;;48.25;16.27;;;;;;;;;;5091093;28;20044;-64
2021/07/17 03:29:18;;;;;;;45.30;15.90;;;;;;;;;;5079006;28;20048;-64
2021/07/17 03:32:04;;;;;;;52.70;17.50;;;;;;;;;;5091626;28;20052;-64
2021/07/17 03:34:50;;;;;;;57.72;17.77;;;;;;;;;;5088433;28;20498;-64
2021/07/17 03:37:35;;;;;;;41.83;15.32;;;;;;;;;;5077934;28;20398;-64
2021/07/17 03:40:20;;;;;;;41.50;15.73;;;;;;;;;;5091477;28;20089;-64
2021/07/17 03:43:06;;;;;;;48.45;14.70;;;;;;;;;;5091632;28;20513;-64
2021/07/17 03:45:51;;;;;;;46.30;14.98;;;;;;;;;;5091601;28;20052;-64
2021/07/17 03:48:37;;;;;;;48.25;15.48;;;;;;;;;;5092240;28;20131;-65
2021/07/17 03:51:23;;;;;;;42.92;14.70;;;;;;;;;;5093885;28;20060;-65
2021/07/17 03:54:10;;;;;;;46.38;14.35;;;;;;;;;;5094751;28;20121;-65
2021/07/17 03:56:55;;;;;;;41.35;15.02;;;;;;;;;;5074957;28;20048;-65
2021/07/17 03:59:40;;;;;;;43.03;13.43;;;;;;;;;;5092100;28;20111;-64
2021/07/17 04:02:29;;;;;;;47.55;16.77;;;;;;;;;;5095179;28;20044;-64
2021/07/17 04:05:15;;;;;;;45.40;13.75;;;;;;;;;;5094840;28;20052;-65
2021/07/17 04:08:00;;;;;;;48.88;14.73;;;;;;;;;;5093783;28;20119;-64
2021/07/17 04:10:46;;;;;;;36.50;13.73;;;;;;;;;;5095000;28;20410;-64
2021/07/17 04:13:31;;;;;;;41.42;13.82;;;;;;;;;;5094497;28;20428;-64
2021/07/17 04:16:16;;;;;;;37.50;14.15;;;;;;;;;;5078147;28;20118;-64
2021/07/17 04:19:02;;;;;;;34.83;12.68;;;;;;;;;;5083784;28;20478;-64
2021/07/17 04:21:47;;;;;;;47.72;13.30;;;;;;;;;;5094658;28;20050;-64
2021/07/17 04:24:33;;;;;;;47.72;15.18;;;;;;;;;;5094186;28;20047;-64
2021/07/17 04:27:18;;;;;;;49.42;14.20;;;;;;;;;;5081485;28;20524;-64
2021/07/17 04:30:03;;;;;;;35.28;12.38;;;;;;;;;;5094135;28;20052;-64
2021/07/17 04:32:49;;;;;;;42.65;13.18;;;;;;;;;;5094491;28;20055;-64
2021/07/17 04:35:35;;;;;;;43.22;12.20;;;;;;;;;;5094578;28;20102;-64
2021/07/17 04:38:20;;;;;;;42.42;12.45;;;;;;;;;;5093428;28;20054;-64
2021/07/17 04:41:06;;;;;;;39.20;12.25;;;;;;;;;;5092844;28;20055;-64
2021/07/17 04:43:51;;;;;;;28.08;11.18;;;;;;;;;;5094296;28;20625;-64
2021/07/17 04:46:36;;;;;;;37.72;11.48;;;;;;;;;;5094389;28;20076;-64
2021/07/17 04:49:21;;;;;;;35.35;11.20;;;;;;;;;;5093790;28;20054;-64
2021/07/17 04:52:07;;;;;;;44.85;12.07;;;;;;;;;;5094142;28;20081;-64
2021/07/17 04:54:52;;;;;;;33.53;12.05;;;;;;;;;;5082345;28;20110;-64
2021/07/17 04:57:40;;;;;;;35.55;11.45;;;;;;;;;;5091068;28;20064;-63
2021/07/17 05:00:25;;;;;;;31.08;11.02;;;;;;;;;;5086577;28;20044;-63
2021/07/17 05:03:10;;;;;;;43.70;12.00;;;;;;;;;;5073804;28;20047;-64
2021/07/17 05:05:56;;;;;;;34.03;11.80;;;;;;;;;;5073691;28;20045;-64
2021/07/17 05:08:41;;;;;;;30.25;10.43;;;;;;;;;;5116560;22;20052;-64
2021/07/17 05:11:27;;;;;;;32.95;10.55;;;;;;;;;;5075945;28;20147;-64
2021/07/17 05:14:12;;;;;;;31.75;9.57;;;;;;;;;;5077516;28;20413;-63
2021/07/17 05:16:57;;;;;;;26.27;9.32;;;;;;;;;;5075273;28;20054;-63
2021/07/17 05:19:43;;;;;;;31.10;10.65;;;;;;;;;;5056775;28;20509;-63
2021/07/17 05:22:28;;;;;;;35.45;10.60;;;;;;;;;;5065886;28;20064;-63
2021/07/17 05:25:14;;;;;;;28.67;8.90;;;;;;;;;;5073443;28;20049;-64
2021/07/17 05:28:02;;;;;;;25.55;7.93;;;;;;;;;;5076778;28;20045;-63
2021/07/17 05:30:48;;;;;;;24.08;8.43;;;;;;;;;;5076550;28;20055;-63
2021/07/17 05:33:34;;;;;;;24.77;8.25;;;;;;;;;;5074789;28;20051;-63
2021/07/17 05:36:19;;;;;;;28.85;9.30;;;;;;;;;;5061580;28;20052;-64
2021/07/17 05:39:05;;;;;;;24.40;7.88;;;;;;;;;;5073024;28;20055;-64
2021/07/17 05:41:50;;;;;;;27.55;7.63;;;;;;;;;;5064358;28;20131;-64
2021/07/17 05:44:35;;;;;;;26.15;8.38;;;;;;;;;;5074637;28;20516;-63
2021/07/17 05:47:21;;;;;;;21.20;7.93;;;;;;;;;;5072885;28;20106;-63
2021/07/17 05:50:07;;;;;;;24.55;6.65;;;;;;;;;;5072247;28;20045;-64
2021/07/17 05:52:52;;;;;;;19.50;6.88;;;;;;;;;;5075245;28;20048;-63
2021/07/17 05:55:37;;;;;;;24.13;6.88;;;;;;;;;;5075529;28;20051;-64
2021/07/17 05:58:23;;;;;;;23.20;7.13;;;;;;;;;;5070700;28;20056;-63
2021/07/17 06:01:08;;;;;;;18.55;7.05;;;;;;;;;;5073882;28;20048;-63
2021/07/17 06:03:54;;;;;;;17.42;5.45;;;;;;;;;;5075655;28;20066;-64
2021/07/17 06:06:39;;;;;;;17.67;6.45;;;;;;;;;;5074170;28;20045;-63
2021/07/17 06:09:25;;;;;;;14.30;6.03;;;;;;;;;;5066512;28;20049;-64
2021/07/17 06:12:10;;;;;;;27.08;6.35;;;;;;;;;;5071131;28;20055;-64
2021/07/17 06:14:56;;;;;;;18.10;5.43;;;;;;;;;;5074301;28;20055;-65
2021/07/17 06:17:41;;;;;;;20.50;6.35;;;;;;;;;;5074647;28;20500;-65
2021/07/17 06:20:26;;;;;;;18.02;5.57;;;;;;;;;;5071140;28;20044;-65
2021/07/17 06:23:12;;;;;;;15.88;5.00;;;;;;;;;;5075039;28;20106;-64
2021/07/17 06:25:59;;;;;;;17.85;4.80;;;;;;;;;;5071634;28;20052;-65
2021/07/17 06:28:44;;;;;;;14.80;4.70;;;;;;;;;;5073090;28;20047;-64
2021/07/17 06:31:30;;;;;;;15.27;5.68;;;;;;;;;;5055743;28;20136;-64
2021/07/17 06:34:16;;;;;;;18.65;5.57;;;;;;;;;;5072020;28;20147;-65
2021/07/17 06:37:01;;;;;;;24.08;5.78;;;;;;;;;;5074717;28;20055;-64
2021/07/17 06:39:46;;;;;;;13.00;4.50;;;;;;;;;;5072120;28;20040;-64
2021/07/17 06:42:31;;;;;;;9.52;4.10;;;;;;;;;;5071965;28;20058;-64
2021/07/17 06:45:17;;;;;;;9.55;3.75;;;;;;;;;;5074173;28;20045;-64
2021/07/17 06:48:02;;;;;;;11.18;3.70;;;;;;;;;;5072645;28;20778;-64
2021/07/17 06:50:48;;;;;;;18.10;3.85;;;;;;;;;;5071723;28;20044;-64
2021/07/17 06:53:33;;;;;;;16.35;4.07;;;;;;;;;;5062639;28;20102;-65
2021/07/17 06:56:21;;;;;;;8.32;3.20;;;;;;;;;;5071602;28;20596;-64
2021/07/17 06:59:06;;;;;;;10.20;2.85;;;;;;;;;;5071975;28;20054;-64
2021/07/17 07:01:51;;;;;;;12.35;3.60;;;;;;;;;;5071572;28;20434;-65
2021/07/17 07:04:37;;;;;;;8.50;2.20;;;;;;;;;;5071438;28;20067;-64
2021/07/17 07:07:22;;;;;;;8.15;2.78;;;;;;;;;;5071511;28;20496;-64
2021/07/17 07:10:08;;;;;;;13.23;3.10;;;;;;;;;;5071266;28;20548;-65
2021/07/17 07:12:54;;;;;;;9.90;2.85;;;;;;;;;;5071141;28;20509;-65
2021/07/17 07:15:39;;;;;;;10.77;2.95;;;;;;;;;;5071289;28;20056;-65
2021/07/17 07:18:24;;;;;;;8.15;2.30;;;;;;;;;;5071759;28;20055;-65
2021/07/17 07:21:10;;;;;;;12.00;2.97;;;;;;;;;;5070886;28;20049;-64
2021/07/17 07:23:55;;;;;;;10.50;2.45;;;;;;;;;;5072380;28;20517;-64
2021/07/17 07:26:40;;;;;;;9.45;3.05;;;;;;;;;;5063019;28;20045;-64
2021/07/17 07:29:26;;;;;;;8.32;2.20;;;;;;;;;;5074590;28;20040;-66
2021/07/17 07:32:12;;;;;;;12.35;2.50;;;;;;;;;;5075439;28;20056;-64
2021/07/17 07:34:57;;;;;;;9.35;2.70;;;;;;;;;;5075296;28;20045;-64
2021/07/17 07:37:43;;;;;;;5.93;1.95;;;;;;;;;;5075180;28;20135;-64
2021/07/17 07:40:29;;;;;;;10.20;2.28;;;;;;;;;;5074231;28;20056;-65
2021/07/17 07:43:14;;;;;;;6.88;2.08;;;;;;;;;;5075411;28;20058;-64
2021/07/17 07:46:00;;;;;;;3.88;1.60;;;;;;;;;;5074621;28;20074;-64
2021/07/17 07:48:45;;;;;;;6.68;2.25;;;;;;;;;;5074540;28;20120;-64
2021/07/17 07:51:30;;;;;;;7.95;2.20;;;;;;;;;;5074827;28;20514;-65
2021/07/17 07:54:16;;;;;;;6.03;2.10;;;;;;;;;;5075067;28;20047;-64
2021/07/17 07:57:01;;;;;;;5.90;1.83;;;;;;;;;;5054904;28;20053;-64
2021/07/17 07:59:46;;;;;;;8.30;2.08;;;;;;;;;;5066753;28;20047;-65
2021/07/17 08:02:31;;;;;;;7.38;2.30;;;;;;;;;;5073239;28;20051;-65
2021/07/17 08:05:17;;;;;;;10.48;2.28;;;;;;;;;;5069521;28;20513;-65
2021/07/17 08:08:02;;;;;;;6.70;1.88;;;;;;;;;;5074262;28;20037;-64
2021/07/17 08:10:47;;;;;;;8.75;2.50;;;;;;;;;;5074304;28;20513;-67
2021/07/17 08:13:33;;;;;;;9.15;2.30;;;;;;;;;;5060373;28;20037;-64
2021/07/17 08:16:18;;;;;;;6.05;1.77;;;;;;;;;;5071867;28;20074;-64
2021/07/17 08:19:03;;;;;;;6.88;2.03;;;;;;;;;;5074716;28;20044;-64
2021/07/17 08:21:49;;;;;;;8.88;2.28;;;;;;;;;;5075083;28;20106;-64
2021/07/17 08:24:34;;;;;;;14.57;2.40;;;;;;;;;;5074036;28;20048;-65
2021/07/17 08:27:19;;;;;;;8.40;2.38;;;;;;;;;;5072185;28;20135;-64
2021/07/17 08:30:05;;;;;;;6.20;2.17;;;;;;;;;;5063596;28;20043;-65
2021/07/17 08:32:52;;;;;;;7.30;2.08;;;;;;;;;;5055889;28;20068;-64
2021/07/17 08:35:38;;;;;;;6.07;2.10;;;;;;;;;;5054091;28;20041;-65
2021/07/17 08:38:23;;;;;;;8.88;2.35;;;;;;;;;;5054541;28;20052;-65
2021/07/17 08:41:10;;;;;;;5.80;1.90;;;;;;;;;;5054099;28;20049;-65
2021/07/17 08:43:55;;;;;;;8.60;2.35;;;;;;;;;;5054772;28;20049;-64
2021/07/17 08:46:40;;;;;;;6.15;1.77;;;;;;;;;;5054750;28;20091;-65
2021/07/17 08:49:26;;;;;;;9.98;2.30;;;;;;;;;;5055608;28;20506;-65
2021/07/17 08:52:11;;;;;;;7.75;2.03;;;;;;;;;;5074009;28;20040;-65
2021/07/17 08:55:03;;;;;;;7.80;1.90;;;;;;;;;;5074245;28;20041;-65
2021/07/17 08:57:48;;;;;;;6.65;1.63;;;;;;;;;;5072873;28;20052;-65
2021/07/17 09:00:37;;;;;;;6.40;1.90;;;;;;;;;;5072019;28;20040;-65
2021/07/17 09:03:22;;;;;;;11.25;2.10;;;;;;;;;;5074089;28;20044;-66
2021/07/17 09:06:08;;;;;;;3.15;1.95;;;;;;;;;;5073892;28;20105;-65
2021/07/17 09:08:53;;;;;;;8.80;2.05;;;;;;;;;;5071550;28;20055;-66
2021/07/17 09:11:40;;;;;;;4.57;1.52;;;;;;;;;;5053596;28;20048;-65
2021/07/17 09:14:38;;;;;;;7.82;2.05;;;;;;;;;;5068848;28;20056;-65
2021/07/17 09:17:24;;;;;;;5.80;1.55;;;;;;;;;;5074865;28;20049;-65
2021/07/17 09:20:10;;;;;;;5.47;1.88;;;;;;;;;;5072774;28;20124;-65
2021/07/17 09:22:58;;;;;;;5.93;1.45;;;;;;;;;;5073437;28;20047;-65
2021/07/17 09:25:44;;;;;;;8.35;1.75;;;;;;;;;;5073474;28;20102;-66
2021/07/17 09:28:31;;;;;;;3.33;1.58;;;;;;;;;;5072614;28;20121;-65
2021/07/17 09:31:16;;;;;;;4.25;1.27;;;;;;;;;;5074089;28;20226;-65
2021/07/17 09:34:13;;;;;;;4.10;1.42;;;;;;;;;;5073773;28;20111;-65
2021/07/17 09:37:00;;;;;;;7.00;2.15;;;;;;;;;;5073073;28;20079;-65
2021/07/17 09:39:46;;;;;;;6.50;1.45;;;;;;;;;;5072107;28;20057;-65
2021/07/17 09:42:32;;;;;;;4.15;1.63;;;;;;;;;;5074703;28;20106;-65
2021/07/17 09:45:33;;;;;;;5.20;2.42;;;;;;;;;;5073015;28;20490;-65
2021/07/17 09:48:21;;;;;;;3.17;0.93;;;;;;;;;;5072693;28;20664;-65
2021/07/17 09:51:07;;;;;;;4.07;1.10;;;;;;;;;;5072608;28;20044;-65
2021/07/17 09:53:55;;;;;;;3.35;1.52;;;;;;;;;;5066456;28;20048;-65
2021/07/17 09:56:41;;;;;;;4.70;1.23;;;;;;;;;;5073368;28;20056;-65
2021/07/17 09:59:26;;;;;;;2.95;1.00;;;;;;;;;;5072638;28;20048;-65
2021/07/17 10:02:28;;;;;;;4.63;0.98;;;;;;;;;;5072083;28;20130;-65
2021/07/17 10:05:16;;;;;;;4.20;1.40;;;;;;;;;;5068312;28;20048;-65
2021/07/17 10:08:12;;;;;;;4.05;1.10;;;;;;;;;;5072203;28;20044;-65
2021/07/17 10:11:01;;;;;;;1.80;0.98;;;;;;;;;;5069648;28;20441;-65
2021/07/17 10:13:46;;;;;;;5.80;1.65;;;;;;;;;;5052764;28;20045;-65
2021/07/17 10:16:32;;;;;;;3.35;1.08;;;;;;;;;;5053428;28;20052;-65
2021/07/17 10:19:18;;;;;;;5.45;1.73;;;;;;;;;;5053829;28;20426;-65
2021/07/17 10:22:04;;;;;;;4.88;1.23;;;;;;;;;;5068867;28;20051;-66
2021/07/17 10:24:49;;;;;;;3.00;1.02;;;;;;;;;;5072650;28;20102;-66
2021/07/17 10:27:35;;;;;;;2.60;0.88;;;;;;;;;;5072133;28;20403;-65
2021/07/17 10:30:20;;;;;;;3.00;0.82;;;;;;;;;;5071923;28;20094;-65
2021/07/17 10:33:06;;;;;;;3.83;1.08;;;;;;;;;;5072263;28;20049;-66
2021/07/17 10:35:52;;;;;;;3.58;1.17;;;;;;;;;;5072543;28;20048;-65
2021/07/17 10:38:40;;;;;;;3.30;1.02;;;;;;;;;;5071149;28;20044;-65
2021/07/17 10:41:25;;;;;;;3.92;1.30;;;;;;;;;;5065413;28;20041;-65
2021/07/17 10:44:11;;;;;;;3.83;0.90;;;;;;;;;;5051199;28;20055;-65
2021/07/17 10:46:58;;;;;;;8.75;1.50;;;;;;;;;;5052476;28;20407;-65
2021/07/17 10:49:47;;;;;;;4.38;0.88;;;;;;;;;;5050783;28;20049;-65
2021/07/17 10:52:36;;;;;;;4.55;0.90;;;;;;;;;;5060887;28;20498;-65
2021/07/17 10:55:25;;;;;;;2.80;0.77;;;;;;;;;;5053204;28;20048;-65
2021/07/17 10:58:13;;;;;;;7.10;1.27;;;;;;;;;;5051358;28;20059;-65
2021/07/17 11:00:58;;;;;;;1.95;0.68;;;;;;;;;;5052035;28;20422;-65
2021/07/17 11:03:44;;;;;;;2.03;0.57;;;;;;;;;;5067270;28;20072;-65
2021/07/17 11:06:29;;;;;;;1.63;0.60;;;;;;;;;;5071007;28;20060;-65
2021/07/17 11:09:24;;;;;;;2.92;0.68;;;;;;;;;;5072284;28;20045;-65
2021/07/17 11:12:19;;;;;;;1.42;0.60;;;;;;;;;;5071860;28;20520;-65
2021/07/17 11:15:10;;;;;;;2.70;0.65;;;;;;;;;;5071209;28;20041;-65
2021/07/17 11:17:56;;;;;;;5.60;1.77;;;;;;;;;;5071927;28;20055;-65
2021/07/17 11:20:41;;;;;;;3.45;0.75;;;;;;;;;;5071705;28;20234;-65
2021/07/17 11:23:31;;;;;;;4.40;0.82;;;;;;;;;;5071853;28;20055;-65
2021/07/17 11:26:20;;;;;;;4.57;0.80;;;;;;;;;;5051705;28;20419;-65
2021/07/17 11:29:06;;;;;;;3.33;1.00;;;;;;;;;;5051587;28;20042;-65
2021/07/17 11:31:52;;;;;;;2.08;0.65;;;;;;;;;;5051516;28;20517;-65
2021/07/17 11:34:41;;;;;;;2.85;0.88;;;;;;;;;;5056069;28;20126;-65
2021/07/17 11:37:27;;;;;;;2.17;0.50;;;;;;;;;;5071585;28;20413;-65
2021/07/17 11:40:13;;;;;;;2.05;0.65;;;;;;;;;;5071301;28;20552;-66
2021/07/17 11:43:01;;;;;;;5.35;0.93;;;;;;;;;;5071669;28;20411;-65
2021/07/17 11:45:46;;;;;;;3.28;0.60;;;;;;;;;;5071215;28;20044;-65
2021/07/17 11:48:31;;;;;;;2.10;0.60;;;;;;;;;;5071582;28;20041;-65
2021/07/17 11:51:17;;;;;;;1.83;0.60;;;;;;;;;;5071350;28;20048;-63
2021/07/17 11:54:02;;;;;;;2.22;0.45;;;;;;;;;;5071910;28;20419;-65
2021/07/17 11:57:00;;;;;;;2.08;0.55;;;;;;;;;;5071006;28;20495;-64
2021/07/17 11:59:49;;;;;;;4.80;0.60;;;;;;;;;;5071208;28;20533;-65
2021/07/17 12:02:35;;;;;;;1.48;0.52;;;;;;;;;;5071332;28;20050;-65
2021/07/17 12:05:22;;;;;;;1.40;0.50;;;;;;;;;;5071374;28;20155;-64
2021/07/17 12:08:07;;;;;;;4.18;1.08;;;;;;;;;;5050159;28;20056;-65
2021/07/17 12:10:53;;;;;;;2.97;0.90;;;;;;;;;;5052721;28;20045;-64
2021/07/17 12:13:38;;;;;;;2.25;0.65;;;;;;;;;;5055124;28;20051;-65
2021/07/17 12:16:23;;;;;;;2.88;0.73;;;;;;;;;;5058150;28;20048;-65
2021/07/17 12:19:09;;;;;;;1.75;0.60;;;;;;;;;;5074722;28;20047;-65
2021/07/17 12:21:57;;;;;;;1.25;0.75;;;;;;;;;;5075473;28;20158;-65
2021/07/17 12:24:42;;;;;;;2.38;0.43;;;;;;;;;;5075154;28;20063;-65
2021/07/17 12:27:28;;;;;;;3.05;0.80;;;;;;;;;;5072803;28;20048;-66
2021/07/17 12:30:14;;;;;;;1.38;0.45;;;;;;;;;;5074146;28;20055;-64
2021/07/17 12:33:12;;;;;;;2.63;0.63;;;;;;;;;;5074545;28;20056;-65
2021/07/17 12:36:02;;;;;;;2.13;0.60;;;;;;;;;;5074234;28;20041;-65
2021/07/17 12:38:55;;;;;;;2.78;1.05;;;;;;;;;;5073713;28;20074;-65
2021/07/17 12:41:41;;;;;;;4.45;0.50;;;;;;;;;;5074137;28;20044;-65
2021/07/17 12:44:26;;;;;;;2.65;1.10;;;;;;;;;;5074196;28;20223;-66
2021/07/17 12:47:11;;;;;;;1.98;1.05;;;;;;;;;;5074201;28;20052;-65
2021/07/17 12:50:03;;;;;;;1.75;0.60;;;;;;;;;;5068270;28;20040;-65
2021/07/17 12:52:49;;;;;;;1.98;0.50;;;;;;;;;;5053909;28;20045;-65
2021/07/17 12:55:34;;;;;;;2.42;1.27;;;;;;;;;;5072851;28;20063;-64
2021/07/17 12:58:20;;;;;;;2.33;0.88;;;;;;;;;;5073959;28;20106;-65
2021/07/17 13:01:05;;;;;;;2.92;1.10;;;;;;;;;;5072623;28;20042;-65
2021/07/17 13:03:50;;;;;;;0.88;0.60;;;;;;;;;;5073885;28;20050;-65
2021/07/17 13:06:35;;;;;;;1.40;0.40;;;;;;;;;;5072829;28;20047;-65
2021/07/17 13:09:26;;;;;;;5.15;1.00;;;;;;;;;;5073436;28;20552;-64
2021/07/17 13:12:11;;;;;;;2.40;0.95;;;;;;;;;;5074265;28;20129;-64
2021/07/17 13:14:57;;;;;;;2.90;0.70;;;;;;;;;;5073761;28;20044;-65
2021/07/17 13:17:42;;;;;;;2.47;0.80;;;;;;;;;;5072744;28;20094;-65
2021/07/17 13:20:29;;;;;;;3.75;0.70;;;;;;;;;;5073188;28;20178;-65
2021/07/17 13:23:16;;;;;;;2.53;0.80;;;;;;;;;;5073475;28;20125;-65
2021/07/17 13:26:01;;;;;;;2.67;0.70;;;;;;;;;;5060102;28;20052;-65
2021/07/17 13:28:46;;;;;;;1.42;0.63;;;;;;;;;;5053349;28;20036;-65
2021/07/17 13:31:32;;;;;;;4.75;0.77;;;;;;;;;;5053222;28;20052;-65
2021/07/17 13:34:18;;;;;;;1.23;0.73;;;;;;;;;;5053157;28;20045;-65
2021/07/17 13:37:09;;;;;;;4.53;0.47;;;;;;;;;;5072083;28;20059;-66
2021/07/17 13:39:55;;;;;;;2.15;0.55;;;;;;;;;;5073101;28;20045;-65
2021/07/17 13:42:41;;;;;;;2.33;0.65;;;;;;;;;;5073026;28;20040;-65
2021/07/17 13:45:27;;;;;;;1.55;0.52;;;;;;;;;;5071686;28;20037;-65
2021/07/17 13:48:12;;;;;;;3.67;0.52;;;;;;;;;;5071825;28;20182;-64
2021/07/17 13:51:17;;;;;;;2.92;1.30;;;;;;;;;;5072670;28;20064;-65
2021/07/17 13:54:03;;;;;;;2.15;0.40;;;;;;;;;;5072953;28;20052;-65
2021/07/17 13:56:49;;;;;;;2.80;0.60;;;;;;;;;;5072260;28;20037;-65
2021/07/17 13:59:34;;;;;;;1.33;0.50;;;;;;;;;;5053248;28;20499;-65
2021/07/17 14:02:19;;;;;;;2.15;0.50;;;;;;;;;;5052802;28;20116;-65
2021/07/17 14:05:05;;;;;;;1.63;0.70;;;;;;;;;;5053340;28;20156;-66
2021/07/17 14:07:51;;;;;;;1.20;0.60;;;;;;;;;;5065939;28;20041;-65
2021/07/17 14:10:36;;;;;;;2.45;0.47;;;;;;;;;;5072730;28;20163;-65
2021/07/17 14:13:22;;;;;;;3.65;0.70;;;;;;;;;;5073182;28;20044;-66
2021/07/17 14:16:08;;;;;;;3.83;0.90;;;;;;;;;;5072499;28;20510;-65
2021/07/17 14:18:54;;;;;;;2.70;0.90;;;;;;;;;;5072363;28;20072;-65
2021/07/17 14:21:40;;;;;;;2.10;0.70;;;;;;;;;;5069991;28;20064;-65
2021/07/17 14:24:26;;;;;;;2.70;1.23;;;;;;;;;;5070727;28;20072;-65
2021/07/17 14:27:11;;;;;;;2.83;0.50;;;;;;;;;;5072031;28;20421;-65
2021/07/17 14:29:56;;;;;;;3.10;0.70;;;;;;;;;;5071276;28;20050;-66
2021/07/17 14:32:42;;;;;;;2.85;0.60;;;;;;;;;;5071521;28;20174;-65
2021/07/17 14:35:27;;;;;;;1.67;0.68;;;;;;;;;;5072385;28;20418;-65
2021/07/17 14:38:12;;;;;;;1.50;0.50;;;;;;;;;;5071544;28;20097;-65
2021/07/17 14:40:58;;;;;;;1.42;0.60;;;;;;;;;;5071803;28;20055;-65
2021/07/17 14:43:44;;;;;;;2.17;0.60;;;;;;;;;;5072308;28;20048;-65
2021/07/17 14:46:29;;;;;;;4.68;0.68;;;;;;;;;;5072143;28;20052;-65
2021/07/17 14:49:14;;;;;;;0.77;0.38;;;;;;;;;;5071410;28;20047;-65
2021/07/17 14:52:00;;;;;;;3.15;1.13;;;;;;;;;;5072157;28;20056;-65
2021/07/17 14:54:45;;;;;;;0.93;0.45;;;;;;;;;;5072105;28;20171;-66
2021/07/17 14:57:30;;;;;;;3.88;0.63;;;;;;;;;;5071974;28;20059;-65
2021/07/17 15:00:16;;;;;;;2.35;0.63;;;;;;;;;;5071156;28;20510;-65
2021/07/17 15:03:02;;;;;;;1.75;0.47;;;;;;;;;;5071960;28;20048;-65
2021/07/17 15:05:48;;;;;;;2.30;0.80;;;;;;;;;;5071889;28;20056;-65
2021/07/17 15:08:33;;;;;;;3.70;0.90;;;;;;;;;;5071705;28;20055;-65
2021/07/17 15:11:18;;;;;;;2.35;0.70;;;;;;;;;;5054471;28;20187;-65
2021/07/17 15:14:04;;;;;;;2.00;0.73;;;;;;;;;;5051733;28;20056;-66
2021/07/17 15:16:49;;;;;;;1.77;0.73;;;;;;;;;;5051657;28;20430;-65
2021/07/17 15:19:35;;;;;;;2.88;0.60;;;;;;;;;;5051496;28;20176;-66
2021/07/17 15:22:20;;;;;;;4.05;0.77;;;;;;;;;;5051606;28;20109;-65
2021/07/17 15:25:06;;;;;;;1.73;0.75;;;;;;;;;;5051528;28;20055;-65
2021/07/17 15:27:51;;;;;;;2.22;0.60;;;;;;;;;;5051634;28;20049;-66
2021/07/17 15:30:37;;;;;;;2.13;0.40;;;;;;;;;;5056386;28;20047;-65
2021/07/17 15:33:22;;;;;;;2.42;0.85;;;;;;;;;;5071493;28;20441;-65
2021/07/17 15:36:08;;;;;;;0.70;0.30;;;;;;;;;;5071640;28;20499;-65
2021/07/17 15:38:53;;;;;;;1.23;0.50;;;;;;;;;;5071560;28;20146;-65
2021/07/17 15:41:39;;;;;;;2.08;0.70;;;;;;;;;;5068443;28;20075;-65
2021/07/17 15:44:25;;;;;;;1.38;0.60;;;;;;;;;;5064486;28;20487;-66
2021/07/17 15:47:10;;;;;;;4.40;0.50;;;;;;;;;;5076089;28;20054;-65
2021/07/17 15:49:55;;;;;;;1.45;0.40;;;;;;;;;;5075300;28;20048;-65
2021/07/17 15:52:41;;;;;;;2.47;0.60;;;;;;;;;;5075780;28;20076;-65
2021/07/17 15:55:26;;;;;;;3.22;0.50;;;;;;;;;;5075805;28;20135;-65
2021/07/17 15:58:12;;;;;;;2.17;0.65;;;;;;;;;;5075888;28;20045;-66
2021/07/17 16:00:57;;;;;;;1.80;0.52;;;;;;;;;;5075440;28;20048;-66
2021/07/17 16:03:43;;;;;;;3.72;0.65;;;;;;;;;;5076059;28;20402;-65
2021/07/17 16:06:28;;;;;;;1.60;0.38;;;;;;;;;;5075397;28;20032;-66
2021/07/17 16:09:14;;;;;;;1.40;0.47;;;;;;;;;;5054997;28;20052;-66
2021/07/17 16:12:00;;;;;;;2.88;0.80;;;;;;;;;;5055256;28;20077;-66
2021/07/17 16:14:45;;;;;;;3.10;0.90;;;;;;;;;;5055237;28;20171;-65
2021/07/17 16:17:30;;;;;;;3.65;0.50;;;;;;;;;;5058606;28;20032;-65
2021/07/17 16:20:16;;;;;;;2.53;0.60;;;;;;;;;;5074770;28;20125;-65
2021/07/17 16:23:01;;;;;;;1.42;0.40;;;;;;;;;;5074855;28;20067;-65
2021/07/17 16:25:48;;;;;;;1.10;0.52;;;;;;;;;;5074864;28;20426;-65